Meltham Mills, United Kingdom
Current Conditions -  °F | °C
As of 9:20 AM on Monday 20 Oct 2014 (Local Time) from EGNM Reporting Station
Scattered Clouds Scattered Clouds  
Wind Chill: 52°   Ceiling: Unl
Heat Index: 52°   Visibility: 6mi
Dew Point: 48°   Wind: 8mph
Humidity: 88%   Direction: 250°WSW
Pressure: 29.85"   Gusts: NA
Location:  53.59°N, 1.84°W
Report Text: EGNM 200820Z 25007KT 210V280 9999 FEW010 SCT015 11/09 Q1011
Loading
Personal Weather Stations






























Interactive Weather Map
Tropical Storm Tracking
New forecast layout! Learn more

10-Day Weather Forecast

Advertisements
Track Severe Weather on mobile